Time;durP1;ratioP1;P1;durP2;ratioP2;P2;SDS_P1;SDS_P2;PMS_P1;PMS_P2;Temp;Humidity;BMP_temperature;BMP_pressure;BME280_temperature;BME280_humidity;BME280_pressure;Samples;Min_cycle;Max_cycle;Signal;HPM_P1;HPM_P2
2021/01/24 05:23:02;;;;;;;21.75;14.05;;;3.90;99.90;;;;;;5824496;23;20239;-75
2021/01/24 05:25:32;;;;;;;20.23;15.07;;;3.50;99.90;;;;;;5061630;28;20194;-76
2021/01/24 05:28:17;;;;;;;20.00;14.30;;;3.50;99.90;;;;;;5031107;28;20270;-75
2021/01/24 05:30:43;;;;;;;17.70;13.05;;;3.50;99.90;;;;;;5032096;28;20164;-68
2021/01/24 05:33:09;;;;;;;14.32;11.15;;;3.50;99.90;;;;;;5032120;28;20628;-69
2021/01/24 05:35:52;;;;;;;16.52;12.35;;;3.50;99.90;;;;;;5032309;28;20588;-68
2021/01/24 05:38:29;;;;;;;16.40;12.02;;;3.50;99.90;;;;;;5030316;28;20208;-69
2021/01/24 05:40:58;;;;;;;16.13;11.85;;;3.80;99.90;;;;;;5030715;28;20180;-76
2021/01/24 05:43:25;;;;;;;15.48;12.05;;;3.50;99.90;;;;;;5030997;28;20199;-75
2021/01/24 05:45:52;;;;;;;17.42;13.27;;;3.50;99.90;;;;;;5030080;28;20196;-75
2021/01/24 05:48:18;;;;;;;19.15;14.32;;;;;;;;;;5031665;28;20192;-76
2021/01/24 05:50:45;;;;;;;19.25;13.05;;;3.50;99.90;;;;;;5031992;28;20176;-76
2021/01/24 05:53:13;;;;;;;18.95;13.52;;;3.50;99.90;;;;;;5031453;28;20244;-76
2021/01/24 05:55:39;;;;;;;20.70;14.35;;;3.40;99.90;;;;;;5031984;28;20164;-68
2021/01/24 05:58:18;;;;;;;20.30;14.02;;;3.50;99.90;;;;;;5031572;28;20212;-68
2021/01/24 06:00:45;;;;;;;18.67;13.85;;;3.40;99.90;;;;;;5031205;28;20172;-68
2021/01/24 06:03:12;;;;;;;19.90;14.18;;;3.40;99.90;;;;;;5030216;28;20666;-68
2021/01/24 06:05:38;;;;;;;22.88;14.18;;;3.40;99.90;;;;;;5031923;28;20165;-69
2021/01/24 06:08:06;;;;;;;19.70;13.77;;;3.30;99.90;;;;;;5031523;28;20224;-75
2021/01/24 06:10:32;;;;;;;20.48;14.65;;;3.30;99.90;;;;;;5031843;28;20165;-76
2021/01/24 06:13:01;;;;;;;21.50;14.85;;;3.40;99.90;;;;;;5031649;28;20192;-74
2021/01/24 06:15:28;;;;;;;21.83;14.98;;;3.30;99.90;;;;;;5031488;28;20184;-75
2021/01/24 06:18:03;;;;;;;17.60;12.80;;;3.30;99.90;;;;;;5031654;28;20399;-75
2021/01/24 06:20:37;;;;;;;22.38;14.35;;;3.30;99.90;;;;;;5035372;28;20167;-75
2021/01/24 06:23:24;;;;;;;22.65;15.13;;;3.40;99.90;;;;;;5034807;28;20277;-75
2021/01/24 06:25:53;;;;;;;23.17;15.10;;;3.30;99.90;;;;;;5035026;28;20184;-75
2021/01/24 06:28:26;;;;;;;18.67;14.80;;;3.30;99.90;;;;;;5033828;28;20195;-75
2021/01/24 06:30:53;;;;;;;21.23;14.30;;;3.30;99.90;;;;;;5035475;28;20195;-68
2021/01/24 06:33:21;;;;;;;20.00;14.98;;;3.30;99.90;;;;;;5034144;28;20196;-69
2021/01/24 06:35:48;;;;;;;20.88;14.88;;;3.50;99.90;;;;;;5033994;28;20218;-68
2021/01/24 06:38:35;;;;;;;18.70;13.77;;;3.40;99.90;;;;;;5035076;28;20196;-69
2021/01/24 06:41:03;;;;;;;17.35;13.93;;;3.00;99.90;;;;;;5033773;28;20177;-68
2021/01/24 06:43:46;;;;;;;15.85;13.70;;;3.30;99.90;;;;;;5035328;28;20212;-68
2021/01/24 06:46:21;;;;;;;18.63;14.02;;;3.30;99.90;;;;;;5034886;28;20640;-69
2021/01/24 06:48:49;;;;;;;18.33;13.77;;;3.30;99.90;;;;;;5035036;28;20184;-68
2021/01/24 06:51:31;;;;;;;17.80;13.82;;;3.30;99.90;;;;;;5016860;28;20242;-69
2021/01/24 06:53:57;;;;;;;16.88;13.52;;;3.30;99.90;;;;;;5034494;28;20387;-68
2021/01/24 06:56:23;;;;;;;18.13;13.95;;;3.10;99.90;;;;;;5033210;28;20773;-68
2021/01/24 06:58:50;;;;;;;17.65;13.48;;;3.20;99.90;;;;;;5033729;28;20264;-68
2021/01/24 07:01:25;;;;;;;15.95;13.20;;;3.20;99.90;;;;;;5034564;28;20169;-68
2021/01/24 07:04:25;;;;;;;16.70;13.18;;;3.50;99.90;;;;;;5034093;28;20424;-68
2021/01/24 07:06:56;;;;;;;14.20;12.05;;;2.90;99.90;;;;;;5034603;28;20635;-68
2021/01/24 07:09:27;;;;;;;16.20;12.57;;;3.20;99.90;;;;;;5032767;28;20193;-68
2021/01/24 07:11:54;;;;;;;15.88;12.52;;;3.20;99.90;;;;;;5034493;28;20192;-68
2021/01/24 07:14:43;;;;;;;16.42;13.00;;;3.20;99.90;;;;;;5034382;28;20193;-67
2021/01/24 07:17:11;;;;;;;15.60;13.18;;;3.10;99.90;;;;;;5026253;28;20312;-69
2021/01/24 07:19:46;;;;;;;14.75;12.80;;;3.20;99.90;;;;;;5034457;28;20204;-69
2021/01/24 07:22:13;;;;;;;13.73;11.23;;;3.20;99.90;;;;;;5032787;28;20551;-68
2021/01/24 07:24:40;;;;;;;17.85;13.20;;;3.20;99.90;;;;;;5033901;28;20228;-68
2021/01/24 07:27:08;;;;;;;15.38;13.05;;;3.30;99.90;;;;;;5034275;28;20259;-67
2021/01/24 07:29:34;;;;;;;15.57;13.25;;;3.30;99.90;;;;;;5033993;28;20188;-68
2021/01/24 07:32:08;;;;;;;16.70;13.90;;;3.30;99.90;;;;;;5034113;28;20169;-69
2021/01/24 07:34:35;;;;;;;14.73;11.95;;;;;;;;;;5034210;28;20184;-67
2021/01/24 07:37:02;;;;;;;15.38;13.77;;;3.40;99.90;;;;;;5039002;28;20257;-69
2021/01/24 07:39:29;;;;;;;16.08;13.35;;;3.50;99.90;;;;;;5042637;28;20199;-69
2021/01/24 07:41:55;;;;;;;13.98;12.27;;;3.30;99.90;;;;;;5024733;28;20192;-69
2021/01/24 07:44:21;;;;;;;15.00;13.13;;;3.40;99.90;;;;;;5044195;28;20246;-69
2021/01/24 07:46:47;;;;;;;15.85;13.07;;;3.10;99.90;;;;;;5043230;28;20573;-69
2021/01/24 07:49:13;;;;;;;15.80;13.10;;;3.40;99.90;;;;;;5043156;28;20272;-70
2021/01/24 07:51:39;;;;;;;15.93;13.63;;;;;;;;;;5026548;28;20172;-69
2021/01/24 07:54:05;;;;;;;14.55;12.55;;;;;;;;;;5042198;28;20215;-70
2021/01/24 07:56:31;;;;;;;15.80;13.13;;;3.50;99.90;;;;;;5041931;28;20219;-70
2021/01/24 07:58:57;;;;;;;16.45;13.85;;;3.50;99.90;;;;;;5043934;28;20192;-69
2021/01/24 08:01:24;;;;;;;15.77;13.25;;;3.50;99.90;;;;;;5043790;28;20459;-69
2021/01/24 08:03:50;;;;;;;17.48;13.35;;;3.60;99.90;;;;;;5025397;28;20568;-69
2021/01/24 08:06:16;;;;;;;17.10;13.63;;;3.70;99.90;;;;;;5043683;28;20169;-71
2021/01/24 08:08:44;;;;;;;16.80;12.70;;;3.80;99.90;;;;;;5040224;28;20215;-71
2021/01/24 08:11:10;;;;;;;15.88;13.48;;;3.80;99.90;;;;;;5025534;28;20588;-70
2021/01/24 08:13:36;;;;;;;17.20;14.15;;;3.80;99.90;;;;;;5043928;28;20662;-70
2021/01/24 08:16:10;;;;;;;15.32;12.75;;;3.80;99.90;;;;;;5044814;28;20175;-68
2021/01/24 08:18:37;;;;;;;15.52;13.63;;;3.90;99.90;;;;;;5041916;28;20195;-69
2021/01/24 08:21:04;;;;;;;15.85;14.00;;;4.00;99.90;;;;;;5042222;28;20259;-69
2021/01/24 08:23:31;;;;;;;15.82;14.10;;;4.10;99.90;;;;;;5041567;28;20263;-69
2021/01/24 08:25:57;;;;;;;17.27;13.90;;;4.10;99.90;;;;;;5042261;28;20198;-69
2021/01/24 08:28:25;;;;;;;16.50;13.32;;;4.20;99.90;;;;;;5043744;28;20227;-68
2021/01/24 08:30:51;;;;;;;16.33;14.10;;;4.20;99.90;;;;;;5042590;28;20681;-69
2021/01/24 08:33:18;;;;;;;17.35;14.50;;;4.30;99.90;;;;;;5050120;28;20237;-68
2021/01/24 08:35:45;;;;;;;18.08;16.17;;;4.40;99.90;;;;;;5034353;28;20434;-69
2021/01/24 08:38:13;;;;;;;16.30;14.45;;;4.40;99.90;;;;;;5042159;28;20239;-72
2021/01/24 08:40:40;;;;;;;15.82;14.23;;;4.40;99.90;;;;;;5042987;28;20425;-71
2021/01/24 08:43:07;;;;;;;13.75;12.27;;;4.50;99.90;;;;;;5042427;28;20191;-74
2021/01/24 08:45:34;;;;;;;14.18;12.02;;;4.50;99.90;;;;;;5017532;28;20258;-70
2021/01/24 08:48:04;;;;;;;11.57;9.88;;;4.50;99.90;;;;;;5043190;28;20199;-72
2021/01/24 08:50:35;;;;;;;14.10;11.23;;;4.50;99.90;;;;;;5035016;28;20247;-72
2021/01/24 08:53:03;;;;;;;11.32;10.13;;;4.50;99.90;;;;;;5038829;28;20230;-73
2021/01/24 08:55:29;;;;;;;10.55;8.65;;;4.60;99.90;;;;;;5022980;28;20642;-72
2021/01/24 08:57:55;;;;;;;8.48;7.55;;;4.60;99.90;;;;;;5039136;28;20856;-73
2021/01/24 09:00:22;;;;;;;8.13;6.75;;;4.70;99.90;;;;;;5039070;28;20171;-72
2021/01/24 09:02:48;;;;;;;8.02;7.03;;;4.80;99.90;;;;;;5034177;28;20287;-73
2021/01/24 09:05:29;;;;;;;6.75;5.47;;;4.80;99.90;;;;;;5032530;28;20647;-73
2021/01/24 09:07:55;;;;;;;6.18;5.57;;;4.80;99.90;;;;;;5031892;28;20196;-72
2021/01/24 09:10:30;;;;;;;7.53;6.20;;;4.80;99.90;;;;;;5034538;28;20179;-72
2021/01/24 09:12:59;;;;;;;7.32;5.85;;;4.80;99.90;;;;;;5036009;28;20310;-73
2021/01/24 09:15:26;;;;;;;7.00;6.03;;;5.90;99.90;;;;;;5030661;28;20184;-72
2021/01/24 09:17:54;;;;;;;8.05;7.25;;;4.80;99.90;;;;;;5035920;28;20461;-72
2021/01/24 09:20:22;;;;;;;7.00;6.35;;;4.80;99.90;;;;;;5031918;28;20180;-72
2021/01/24 09:22:48;;;;;;;6.60;5.95;;;4.80;99.90;;;;;;5029151;28;20216;-72
2021/01/24 09:25:14;;;;;;;6.60;5.57;;;4.80;99.90;;;;;;5030795;28;20646;-72
2021/01/24 09:27:40;;;;;;;7.25;5.45;;;4.80;99.90;;;;;;5044430;28;20206;-71
2021/01/24 09:30:12;;;;;;;5.03;4.18;;;4.80;99.90;;;;;;5051739;28;20175;-73
2021/01/24 09:32:38;;;;;;;4.88;3.85;;;4.80;99.90;;;;;;5051936;28;20191;-73
2021/01/24 09:35:05;;;;;;;4.88;4.05;;;4.80;99.90;;;;;;5050012;28;20622;-71
2021/01/24 09:37:30;;;;;;;3.33;3.00;;;4.90;99.90;;;;;;5051945;28;20208;-72
2021/01/24 09:39:56;;;;;;;2.20;1.90;;;4.90;99.90;;;;;;5050825;28;20175;-72
2021/01/24 09:42:22;;;;;;;1.55;1.45;;;4.80;99.90;;;;;;5050663;28;20172;-73
2021/01/24 09:44:49;;;;;;;1.73;1.50;;;4.90;99.90;;;;;;5050473;28;20445;-73
2021/01/24 09:47:15;;;;;;;1.67;1.35;;;4.90;99.90;;;;;;5051969;28;20176;-72
2021/01/24 09:49:41;;;;;;;1.52;1.42;;;4.90;99.90;;;;;;5050993;28;20199;-72
2021/01/24 09:52:07;;;;;;;1.67;1.58;;;4.90;99.90;;;;;;5051915;28;20199;-72
2021/01/24 09:54:33;;;;;;;1.50;1.40;;;4.90;99.90;;;;;;5050819;28;20657;-81
2021/01/24 09:56:59;;;;;;;1.58;1.42;;;4.90;99.90;;;;;;5031533;28;20227;-74
2021/01/24 09:59:24;;;;;;;2.17;1.77;;;4.90;99.90;;;;;;5013896;28;20226;-74
2021/01/24 10:01:51;;;;;;;2.47;1.83;;;5.00;99.90;;;;;;5031370;28;20195;-74
2021/01/24 10:04:17;;;;;;;1.67;1.55;;;5.00;99.90;;;;;;5048745;28;20662;-78
2021/01/24 10:06:42;;;;;;;1.98;1.70;;;5.00;99.90;;;;;;5051809;28;20172;-73
2021/01/24 10:09:09;;;;;;;1.60;1.50;;;5.20;99.90;;;;;;5049999;28;20192;-70
2021/01/24 10:11:35;;;;;;;1.92;1.52;;;5.20;99.90;;;;;;5050184;28;20179;-78
2021/01/24 10:14:01;;;;;;;1.70;1.60;;;5.30;99.90;;;;;;5052202;28;20200;-69
2021/01/24 10:16:29;;;;;;;1.40;1.30;;;5.40;99.90;;;;;;5050107;28;20226;-69
2021/01/24 10:18:54;;;;;;;2.35;1.40;;;5.40;99.90;;;;;;5051614;28;20641;-69
2021/01/24 10:21:20;;;;;;;1.27;1.17;;;5.50;99.50;;;;;;5048945;28;20218;-68
2021/01/24 10:23:46;;;;;;;1.23;1.13;;;5.60;99.60;;;;;;5030971;28;20238;-69
2021/01/24 10:26:14;;;;;;;1.20;1.08;;;5.70;99.30;;;;;;5030543;28;20176;-68
2021/01/24 10:28:39;;;;;;;1.30;1.20;;;5.80;99.80;;;;;;5030838;28;20643;-69
2021/01/24 10:31:05;;;;;;;1.55;1.45;;;5.90;99.10;;;;;;5030737;28;20187;-69
2021/01/24 10:33:31;;;;;;;1.58;1.20;;;6.00;97.00;;;;;;5031562;28;20669;-68
2021/01/24 10:35:56;;;;;;;1.67;1.48;;;6.10;95.40;;;;;;5031410;28;20173;-69
2021/01/24 10:38:22;;;;;;;2.45;1.27;;;6.30;94.60;;;;;;5013323;28;20601;-69
2021/01/24 10:40:49;;;;;;;1.50;1.40;;;6.30;95.30;;;;;;5031373;28;20647;-69
2021/01/24 10:43:15;;;;;;;1.50;1.40;;;6.40;94.20;;;;;;5031601;28;20673;-69
2021/01/24 10:45:41;;;;;;;1.52;1.38;;;6.40;91.90;;;;;;5031512;28;20180;-68
2021/01/24 10:48:07;;;;;;;1.40;1.30;;;6.50;91.50;;;;;;5031317;28;20193;-68
2021/01/24 10:50:39;;;;;;;2.15;1.20;;;6.40;91.30;;;;;;5031435;28;20179;-69
2021/01/24 10:53:05;;;;;;;1.38;1.27;;;6.40;91.90;;;;;;5030898;28;20189;-69
2021/01/24 10:55:32;;;;;;;1.95;1.30;;;6.40;91.50;;;;;;5030109;28;20606;-69
2021/01/24 10:57:57;;;;;;;1.40;1.30;;;6.40;92.10;;;;;;5031179;28;20240;-69
2021/01/24 11:00:24;;;;;;;1.83;1.60;;;6.40;91.00;;;;;;5031325;28;20196;-69
2021/01/24 11:02:50;;;;;;;2.60;1.40;;;6.40;91.30;;;;;;5031092;28;20200;-69
2021/01/24 11:05:15;;;;;;;1.42;1.33;;;6.40;90.80;;;;;;5034538;28;20176;-69
2021/01/24 11:07:41;;;;;;;2.67;1.45;;;6.40;90.40;;;;;;5034327;28;20196;-68
2021/01/24 11:10:08;;;;;;;2.20;1.60;;;6.40;89.30;;;;;;5017189;28;20260;-69
2021/01/24 11:12:34;;;;;;;1.70;1.60;;;6.40;89.70;;;;;;5033315;28;20582;-69
2021/01/24 11:15:00;;;;;;;1.83;1.58;;;6.50;88.80;;;;;;5017013;28;20191;-69
2021/01/24 11:17:26;;;;;;;1.73;1.35;;;6.50;88.90;;;;;;5034453;28;20291;-69
2021/01/24 11:19:52;;;;;;;1.30;1.20;;;6.50;87.80;;;;;;5034590;28;20180;-69
2021/01/24 11:22:23;;;;;;;2.05;1.52;;;6.40;87.50;;;;;;5034652;28;20169;-69
2021/01/24 11:24:49;;;;;;;1.85;1.70;;;6.40;87.80;;;;;;5034390;28;20263;-69
2021/01/24 11:27:15;;;;;;;1.42;1.30;;;6.30;88.60;;;;;;5034583;28;20575;-69
2021/01/24 11:29:42;;;;;;;1.40;1.30;;;6.30;87.90;;;;;;5016532;28;20202;-69
2021/01/24 11:32:08;;;;;;;3.83;1.40;;;6.30;88.30;;;;;;5016717;28;20176;-69
2021/01/24 11:34:35;;;;;;;1.70;1.60;;;6.20;89.60;;;;;;5034404;28;20199;-69
2021/01/24 11:37:01;;;;;;;1.90;1.80;;;6.20;88.30;;;;;;5034362;28;20665;-69
2021/01/24 11:39:27;;;;;;;1.30;1.20;;;6.20;89.60;;;;;;5032691;28;20197;-67
2021/01/24 11:41:52;;;;;;;1.70;1.55;;;6.20;87.10;;;;;;5016548;28;20183;-69
2021/01/24 11:44:18;;;;;;;1.77;1.50;;;6.20;87.60;;;;;;5032661;28;20211;-69
2021/01/24 11:46:45;;;;;;;1.67;1.30;;;6.20;87.50;;;;;;5034265;28;20164;-70
2021/01/24 11:49:10;;;;;;;1.60;1.50;;;6.20;84.40;;;;;;5033824;28;20658;-69
2021/01/24 11:51:36;;;;;;;1.45;1.35;;;6.20;82.10;;;;;;5034197;28;20175;-69
2021/01/24 11:54:03;;;;;;;1.33;1.23;;;6.00;79.10;;;;;;5033605;28;20694;-69
2021/01/24 11:56:28;;;;;;;1.20;1.10;;;6.30;78.00;;;;;;5016054;28;20220;-69
2021/01/24 11:58:54;;;;;;;1.67;1.35;;;6.30;78.90;;;;;;5032409;28;20535;-69
2021/01/24 12:01:20;;;;;;;1.10;1.10;;;6.30;79.60;;;;;;5033946;28;20694;-69
2021/01/24 12:03:45;;;;;;;1.20;1.10;;;6.40;78.50;;;;;;5015991;28;20254;-69
2021/01/24 12:06:12;;;;;;;1.30;1.20;;;6.40;78.20;;;;;;5033710;28;20195;-69
2021/01/24 12:08:37;;;;;;;2.00;1.30;;;6.50;76.80;;;;;;5033477;28;20220;-69
2021/01/24 12:11:03;;;;;;;1.20;1.10;;;6.50;76.30;;;;;;5033698;28;20207;-69
2021/01/24 12:13:29;;;;;;;2.97;1.27;;;6.50;77.50;;;;;;5033588;28;20193;-68
2021/01/24 12:15:55;;;;;;;1.40;1.30;;;6.50;77.50;;;;;;5031098;28;20207;-69
2021/01/24 12:18:22;;;;;;;2.70;1.20;;;6.50;77.10;;;;;;5033356;28;20220;-68
2021/01/24 12:20:48;;;;;;;1.58;1.30;;;6.50;76.80;;;;;;5032178;28;20179;-69
2021/01/24 12:23:13;;;;;;;1.30;1.20;;;6.50;76.70;;;;;;5033038;28;20228;-69
2021/01/24 12:25:39;;;;;;;1.33;1.20;;;6.50;76.30;;;;;;5015529;28;20172;-69
2021/01/24 12:28:05;;;;;;;2.35;1.73;;;6.40;76.80;;;;;;5033322;28;20279;-69
2021/01/24 12:30:31;;;;;;;3.95;1.42;;;6.40;77.30;;;;;;5033144;28;20254;-69
2021/01/24 12:32:56;;;;;;;1.40;1.30;;;6.40;78.30;;;;;;5033489;28;20189;-69
2021/01/24 12:35:22;;;;;;;2.08;1.48;;;6.40;79.30;;;;;;5033127;28;20512;-69
2021/01/24 12:37:48;;;;;;;2.78;1.63;;;6.40;79.10;;;;;;5032911;28;20718;-69
2021/01/24 12:40:14;;;;;;;1.63;1.33;;;6.40;78.90;;;;;;5033179;28;20539;-69
2021/01/24 12:42:40;;;;;;;1.58;1.42;;;6.40;78.70;;;;;;5032997;28;20207;-70
2021/01/24 12:45:06;;;;;;;1.40;1.30;;;6.40;79.20;;;;;;5032989;28;20172;-69
2021/01/24 12:47:32;;;;;;;1.90;1.60;;;6.40;77.80;;;;;;5032908;28;20173;-68
2021/01/24 12:49:58;;;;;;;1.83;1.25;;;6.50;76.90;;;;;;5033027;28;20165;-69
2021/01/24 12:52:23;;;;;;;1.40;1.30;;;6.50;77.60;;;;;;5032797;28;20279;-69
2021/01/24 12:54:49;;;;;;;1.17;1.08;;;6.60;77.40;;;;;;5032587;28;20169;-69
2021/01/24 12:57:14;;;;;;;1.83;1.70;;;6.60;78.20;;;;;;5032748;28;20204;-69
2021/01/24 12:59:43;;;;;;;2.95;1.50;;;6.60;77.80;;;;;;5032649;28;20666;-69
2021/01/24 13:02:08;;;;;;;1.67;1.20;;;6.70;78.30;;;;;;5031348;28;20181;-69
2021/01/24 13:04:34;;;;;;;1.60;1.50;;;6.70;78.40;;;;;;5032698;28;20685;-68
2021/01/24 13:07:01;;;;;;;1.40;1.20;;;6.70;78.60;;;;;;5032600;28;20177;-69
2021/01/24 13:09:26;;;;;;;1.75;1.58;;;6.70;78.40;;;;;;5032268;28;20208;-69
2021/01/24 13:11:52;;;;;;;1.88;1.50;;;6.80;79.50;;;;;;5032289;28;20173;-69
2021/01/24 13:14:18;;;;;;;2.53;1.60;;;6.80;77.10;;;;;;5014768;28;20215;-68
2021/01/24 13:16:44;;;;;;;2.22;1.80;;;6.80;78.10;;;;;;5032312;28;20294;-69
2021/01/24 13:19:10;;;;;;;1.50;1.38;;;6.80;77.00;;;;;;5032462;28;20267;-69
2021/01/24 13:21:36;;;;;;;1.73;1.63;;;6.80;76.60;;;;;;5032465;28;20171;-69
2021/01/24 13:24:03;;;;;;;1.60;1.50;;;6.80;75.40;;;;;;5031908;28;20267;-69
2021/01/24 13:26:29;;;;;;;1.83;1.70;;;6.70;70.90;;;;;;5031896;28;20201;-69
2021/01/24 13:28:55;;;;;;;2.00;1.80;;;6.70;70.70;;;;;;5032197;28;20665;-69
2021/01/24 13:31:20;;;;;;;1.60;1.38;;;6.60;71.20;;;;;;5032307;28;20165;-69
2021/01/24 13:33:47;;;;;;;2.28;1.60;;;6.50;73.00;;;;;;5031978;28;20563;-69
2021/01/24 13:36:13;;;;;;;2.17;1.83;;;6.50;73.60;;;;;;5032013;28;20169;-69
2021/01/24 13:38:39;;;;;;;2.15;2.00;;;6.50;74.40;;;;;;5031565;28;20199;-68
2021/01/24 13:41:04;;;;;;;2.50;1.83;;;6.50;72.90;;;;;;5032013;28;20599;-69
2021/01/24 13:43:32;;;;;;;1.90;1.80;;;6.50;72.60;;;;;;5031860;28;20197;-68
2021/01/24 13:45:58;;;;;;;1.90;1.80;;;6.50;72.50;;;;;;5014320;28;20187;-69
2021/01/24 13:48:24;;;;;;;2.08;1.92;;;6.50;73.10;;;;;;5031855;28;20662;-69
2021/01/24 13:50:49;;;;;;;2.38;2.17;;;6.40;73.00;;;;;;5014455;28;20187;-69
2021/01/24 13:53:15;;;;;;;2.08;1.88;;;6.40;73.70;;;;;;5031483;28;20267;-69
2021/01/24 13:55:40;;;;;;;2.33;1.83;;;6.40;73.00;;;;;;5031911;28;20165;-69
2021/01/24 13:58:06;;;;;;;2.20;2.00;;;6.40;73.30;;;;;;5031776;28;20221;-69
2021/01/24 14:00:32;;;;;;;2.13;1.92;;;6.30;72.90;;;;;;5031827;28;20191;-69
2021/01/24 14:02:57;;;;;;;2.00;1.80;;;6.30;73.00;;;;;;5031822;28;20231;-69
2021/01/24 14:05:23;;;;;;;2.58;1.98;;;6.30;73.20;;;;;;5031787;28;20169;-68
2021/01/24 14:07:48;;;;;;;4.82;2.40;;;6.30;73.60;;;;;;5031545;28;20192;-69
2021/01/24 14:10:14;;;;;;;1.92;1.80;;;6.20;74.00;;;;;;5031607;28;20168;-68
2021/01/24 14:12:40;;;;;;;3.58;1.85;;;6.20;74.30;;;;;;5031490;28;20196;-68
2021/01/24 14:15:06;;;;;;;3.17;2.75;;;6.20;73.70;;;;;;5031665;28;20260;-69
2021/01/24 14:17:32;;;;;;;4.53;3.05;;;6.20;74.90;;;;;;5030374;28;20286;-69
2021/01/24 14:19:57;;;;;;;2.95;2.30;;;6.20;75.90;;;;;;5013882;28;20319;-69
2021/01/24 14:22:23;;;;;;;3.08;2.78;;;6.10;75.90;;;;;;5031527;28;20168;-69
2021/01/24 14:24:48;;;;;;;1.95;1.83;;;6.10;75.70;;;;;;5031179;28;20235;-69
2021/01/24 14:27:14;;;;;;;2.10;1.90;;;6.10;76.00;;;;;;5035307;28;20541;-69
2021/01/24 14:29:40;;;;;;;2.42;1.80;;;6.10;76.20;;;;;;5049015;28;20584;-69
2021/01/24 14:32:06;;;;;;;2.75;2.55;;;6.00;77.30;;;;;;5040335;28;20224;-69
2021/01/24 14:34:31;;;;;;;3.03;2.63;;;6.00;79.40;;;;;;5035737;28;20193;-73
2021/01/24 14:36:57;;;;;;;2.80;2.00;;;6.00;78.00;;;;;;5047409;28;20287;-74
2021/01/24 14:39:23;;;;;;;2.60;2.03;;;6.00;76.00;;;;;;5043043;28;20609;-75
2021/01/24 14:41:48;;;;;;;2.00;1.80;;;5.90;75.50;;;;;;5047738;28;20180;-74
2021/01/24 14:44:14;;;;;;;2.33;1.95;;;5.90;76.40;;;;;;5042459;28;20188;-75
2021/01/24 14:46:40;;;;;;;3.37;2.20;;;;;;;;;;5050675;28;20506;-72
2021/01/24 14:49:06;;;;;;;2.88;2.00;;;6.00;73.60;;;;;;5052937;28;20191;-73
2021/01/24 14:51:33;;;;;;;1.90;1.80;;;5.90;74.40;;;;;;5025885;28;20234;-74
2021/01/24 14:53:59;;;;;;;1.83;1.60;;;5.90;74.10;;;;;;5033101;28;20227;-72
2021/01/24 14:56:24;;;;;;;2.25;1.92;;;5.80;74.70;;;;;;5033367;28;20176;-72
2021/01/24 14:58:50;;;;;;;3.55;2.53;;;5.80;74.80;;;;;;5034414;28;20549;-73
2021/01/24 15:01:16;;;;;;;3.13;2.10;;;5.80;75.10;;;;;;5021935;28;20168;-73
2021/01/24 15:03:42;;;;;;;2.83;1.90;;;5.70;74.80;;;;;;5047059;28;20200;-73
2021/01/24 15:06:08;;;;;;;1.80;1.70;;;5.70;74.80;;;;;;5049258;28;20183;-75
2021/01/24 15:08:34;;;;;;;2.50;1.92;;;5.70;74.60;;;;;;5052776;28;20708;-74
2021/01/24 15:10:59;;;;;;;1.92;1.70;;;5.60;74.40;;;;;;5054614;28;20191;-73
2021/01/24 15:13:25;;;;;;;3.33;2.15;;;5.60;75.00;;;;;;5045453;28;20676;-72
2021/01/24 15:15:50;;;;;;;3.53;2.05;;;5.60;75.00;;;;;;5034717;28;20519;-73
2021/01/24 15:18:16;;;;;;;2.33;1.95;;;5.60;74.90;;;;;;5034355;28;20212;-73
2021/01/24 15:20:42;;;;;;;2.90;2.20;;;5.50;74.70;;;;;;5034457;28;20165;-73
2021/01/24 15:23:07;;;;;;;3.15;2.67;;;5.50;75.10;;;;;;5033903;28;20239;-73
2021/01/24 15:25:34;;;;;;;7.60;3.67;;;5.40;75.20;;;;;;5034409;28;20175;-72
2021/01/24 15:28:00;;;;;;;6.43;3.63;;;5.40;75.50;;;;;;5034217;28;20192;-74
2021/01/24 15:30:25;;;;;;;7.00;3.33;;;5.40;75.70;;;;;;5032383;28;20242;-73
2021/01/24 15:32:51;;;;;;;8.77;4.18;;;5.30;75.80;;;;;;5034345;28;20200;-73
2021/01/24 15:35:17;;;;;;;7.50;4.25;;;5.30;76.40;;;;;;5034043;28;20172;-73
2021/01/24 15:37:43;;;;;;;7.25;3.22;;;5.30;76.80;;;;;;5032239;28;20223;-73
2021/01/24 15:40:10;;;;;;;4.47;2.85;;;5.30;76.60;;;;;;5033412;28;20172;-69
2021/01/24 15:42:37;;;;;;;6.57;3.00;;;5.00;76.40;;;;;;5033893;28;20176;-70
2021/01/24 15:45:04;;;;;;;5.00;2.47;;;5.20;77.10;;;;;;5036549;28;20195;-68
2021/01/24 15:47:29;;;;;;;5.65;3.13;;;5.10;76.90;;;;;;5045632;28;20179;-68
2021/01/24 15:49:55;;;;;;;5.73;3.07;;;5.30;80.10;;;;;;5045036;28;20404;-69
2021/01/24 15:52:21;;;;;;;7.78;4.32;;;5.00;76.70;;;;;;5052612;28;20709;-69
2021/01/24 15:54:46;;;;;;;4.63;3.47;;;5.00;77.10;;;;;;5053463;28;20172;-68
2021/01/24 15:57:12;;;;;;;4.75;3.20;;;5.00;77.50;;;;;;5048818;28;20581;-69
2021/01/24 15:59:38;;;;;;;6.95;3.85;;;4.90;77.00;;;;;;5045406;28;20643;-68
2021/01/24 16:02:03;;;;;;;4.60;3.00;;;5.00;77.10;;;;;;5042040;28;20664;-68
2021/01/24 16:04:29;;;;;;;5.75;2.60;;;4.90;76.50;;;;;;5040758;28;20740;-72
2021/01/24 16:06:55;;;;;;;9.20;3.63;;;4.80;75.80;;;;;;5041646;28;20195;-74
2021/01/24 16:09:21;;;;;;;5.57;3.15;;;4.90;76.40;;;;;;5042917;28;20674;-71
2021/01/24 16:11:47;;;;;;;6.75;3.60;;;4.80;76.20;;;;;;5040897;28;20267;-72
2021/01/24 16:14:13;;;;;;;3.58;2.50;;;4.80;76.10;;;;;;5025631;28;20224;-72
2021/01/24 16:16:40;;;;;;;6.13;3.20;;;4.80;76.30;;;;;;5021663;28;20796;-69
2021/01/24 16:19:06;;;;;;;3.22;2.40;;;4.80;76.50;;;;;;5020740;28;20283;-70
2021/01/24 16:21:32;;;;;;;3.75;2.83;;;4.70;76.70;;;;;;5024960;28;20267;-72
2021/01/24 16:23:58;;;;;;;5.55;3.00;;;4.70;76.70;;;;;;5039464;28;20224;-72
2021/01/24 16:26:23;;;;;;;3.58;2.88;;;4.60;79.00;;;;;;5039038;28;20176;-72
2021/01/24 16:28:49;;;;;;;6.18;3.45;;;4.60;77.30;;;;;;5028434;28;20279;-71
2021/01/24 16:31:15;;;;;;;4.40;3.05;;;5.40;79.90;;;;;;5051782;28;20522;-71
2021/01/24 16:33:41;;;;;;;7.15;3.00;;;4.30;81.70;;;;;;5051757;28;20203;-72
2021/01/24 16:36:06;;;;;;;3.33;2.35;;;7.50;80.60;;;;;;5048596;28;20188;-72
2021/01/24 16:38:32;;;;;;;3.58;2.42;;;4.60;80.50;;;;;;5039550;28;20212;-72
2021/01/24 16:40:58;;;;;;;6.50;3.42;;;4.50;80.20;;;;;;5038005;28;20179;-72
2021/01/24 16:43:25;;;;;;;3.85;2.58;;;4.50;80.30;;;;;;5043178;28;20215;-72
2021/01/24 16:45:52;;;;;;;4.18;2.42;;;4.60;77.30;;;;;;5045392;28;20180;-72
2021/01/24 16:48:19;;;;;;;3.80;2.85;;;;;;;;;;5032698;28;20284;-71
2021/01/24 16:50:46;;;;;;;4.20;2.67;;;4.30;82.10;;;;;;5036653;28;20180;-72
2021/01/24 16:53:11;;;;;;;3.78;2.90;;;4.80;83.30;;;;;;5040656;28;20684;-72
2021/01/24 16:55:38;;;;;;;3.40;2.53;;;4.50;80.50;;;;;;5044633;28;20172;-73
2021/01/24 16:58:10;;;;;;;5.13;2.70;;;4.80;80.70;;;;;;5039504;28;20290;-72
2021/01/24 17:00:37;;;;;;;3.55;2.53;;;4.70;86.90;;;;;;5039480;28;20299;-73
2021/01/24 17:03:04;;;;;;;4.18;3.22;;;4.70;83.50;;;;;;5042143;28;20192;-72
2021/01/24 17:05:30;;;;;;;4.85;2.72;;;4.20;84.60;;;;;;5043383;28;20191;-70
2021/01/24 17:07:56;;;;;;;5.28;3.20;;;4.20;81.30;;;;;;5031946;28;20204;-71
2021/01/24 17:10:22;;;;;;;5.88;3.08;;;4.20;83.10;;;;;;5044100;28;20179;-72
2021/01/24 17:12:47;;;;;;;3.50;2.85;;;4.70;85.40;;;;;;5049793;28;20198;-72
2021/01/24 17:15:13;;;;;;;3.47;2.40;;;4.70;82.10;;;;;;5049036;28;20255;-72
2021/01/24 17:17:39;;;;;;;1.95;1.75;;;4.60;91.60;;;;;;5045974;28;20273;-72
2021/01/24 17:20:05;;;;;;;2.97;1.90;;;4.40;79.20;;;;;;5044934;28;20207;-72
2021/01/24 17:22:31;;;;;;;2.63;1.98;;;4.10;85.50;;;;;;5040594;28;20192;-71
2021/01/24 17:24:56;;;;;;;2.30;1.80;;;4.30;80.20;;;;;;5044332;28;20721;-71
2021/01/24 17:27:22;;;;;;;3.40;2.10;;;4.30;80.60;;;;;;5035495;28;20195;-71
2021/01/24 17:29:48;;;;;;;2.00;1.80;;;4.30;80.40;;;;;;5036771;28;20264;-72
2021/01/24 17:32:13;;;;;;;2.88;2.25;;;4.20;80.40;;;;;;5031993;28;20168;-73
2021/01/24 17:34:39;;;;;;;3.80;2.15;;;4.20;80.50;;;;;;5013109;28;20192;-72
2021/01/24 17:37:05;;;;;;;2.50;1.88;;;4.20;80.80;;;;;;5014203;28;20671;-72
2021/01/24 17:39:31;;;;;;;2.47;2.25;;;4.20;80.60;;;;;;5039891;28;21517;-72
2021/01/24 17:41:56;;;;;;;2.78;2.28;;;4.30;81.00;;;;;;5050783;28;20188;-72
2021/01/24 17:44:22;;;;;;;3.38;2.20;;;4.20;81.40;;;;;;5044430;28;20205;-72
2021/01/24 17:46:48;;;;;;;2.20;2.00;;;4.20;81.10;;;;;;5042226;28;20180;-72
2021/01/24 17:49:14;;;;;;;4.60;3.17;;;;;;;;;;5041609;28;20250;-73
2021/01/24 17:51:40;;;;;;;3.00;2.70;;;4.30;80.40;;;;;;5031856;28;20344;-73
2021/01/24 17:54:05;;;;;;;3.08;2.38;;;4.20;81.70;;;;;;5028222;28;20689;-72
2021/01/24 17:56:31;;;;;;;4.43;2.38;;;4.40;83.10;;;;;;5040892;28;20612;-73
2021/01/24 17:58:57;;;;;;;2.85;2.22;;;;;;;;;;5042306;28;20231;-73
2021/01/24 18:01:23;;;;;;;3.10;2.30;;;;;;;;;;5030622;28;20181;-73
2021/01/24 18:03:49;;;;;;;2.67;2.05;;;;;;;;;;5033957;28;20219;-73
2021/01/24 18:06:15;;;;;;;2.38;2.17;;;;;;;;;;5037412;28;20655;-74
2021/01/24 18:08:41;;;;;;;2.58;2.38;;;4.20;81.90;;;;;;5044680;28;20286;-70
2021/01/24 18:11:06;;;;;;;1.85;1.75;;;4.20;82.50;;;;;;5024781;28;20180;-70
2021/01/24 18:13:33;;;;;;;4.80;2.47;;;4.20;82.50;;;;;;5040346;28;20234;-71
2021/01/24 18:15:59;;;;;;;2.28;1.90;;;4.20;82.80;;;;;;5047294;28;20178;-68